Pirtle, Texas
Current Conditions -  °F | °C
As of 7:35 PM on Sunday 23 Nov 2014 (Local Time) from KRFI Reporting Station
Clear Clear  
Wind Chill: 17°   Ceiling: Unl
Heat Index: 17°   Visibility: 10mi
Dew Point:   Wind: 3mph
Humidity: 59%   Direction: 200°SSW
Pressure: 29.56"   Gusts: NA
Location:  32.2818°N, 94.951°W
Report Text: KRFI 240135Z AUTO 20003KT 10SM CLR 17/09 A2956 RMK AO2 T01720090
Loading
Personal Weather Stations






























Interactive Weather Map New forecast layout! Learn more

10-Day Weather Forecast

Advertisements
Track Severe Weather on mobile